Time;durP1;ratioP1;P1;durP2;ratioP2;P2;SDS_P1;SDS_P2;PMS_P1;PMS_P2;Temp;Humidity;BMP_temperature;BMP_pressure;BME280_temperature;BME280_humidity;BME280_pressure;Samples;Min_cycle;Max_cycle;Signal;HPM_P1;HPM_P2
2023/10/18 00:01:49;;;;;;;8.70;2.78;;;28.60;99.90;;;;;;5064116;23;20053;-45
2023/10/18 00:04:18;;;;;;;8.52;2.95;;;28.60;99.90;;;;;;5052314;28;20041;-45
2023/10/18 00:06:48;;;;;;;7.72;2.65;;;28.60;99.90;;;;;;5052132;28;20089;-45
2023/10/18 00:11:57;;;;;;;6.88;2.88;;;28.60;99.90;;;;;;5052567;28;20098;-45
2023/10/18 00:14:23;;;;;;;4.65;2.50;;;28.60;99.90;;;;;;5051970;28;20462;-44
2023/10/18 00:16:49;;;;;;;7.95;3.08;;;28.60;99.90;;;;;;5052508;28;20092;-44
2023/10/18 00:19:14;;;;;;;5.90;2.70;;;28.60;99.90;;;;;;5052478;28;20037;-45
2023/10/18 00:21:40;;;;;;;7.70;2.95;;;28.50;99.90;;;;;;5052042;28;20028;-45
2023/10/18 00:24:06;;;;;;;6.18;2.45;;;28.50;99.90;;;;;;5052116;28;20040;-44
2023/10/18 00:26:32;;;;;;;7.05;2.80;;;28.50;99.90;;;;;;5052010;28;20425;-45
2023/10/18 00:28:58;;;;;;;7.60;3.05;;;28.50;99.90;;;;;;5052463;28;20033;-44
2023/10/18 00:31:27;;;;;;;5.85;2.60;;;28.50;99.90;;;;;;5038392;28;20024;-45
2023/10/18 00:33:53;;;;;;;6.70;2.85;;;28.50;99.90;;;;;;5056125;28;20547;-44
2023/10/18 00:36:19;;;;;;;5.68;2.63;;;28.50;99.90;;;;;;5056424;28;20024;-45
2023/10/18 00:38:46;;;;;;;6.47;2.33;;;28.50;99.90;;;;;;5056031;28;20037;-45
2023/10/18 00:41:54;;;;;;;4.82;2.50;;;28.40;99.90;;;;;;5056002;28;20021;-44
2023/10/18 00:44:05;;;;;;;7.40;3.03;;;28.40;99.90;;;;;;5042496;28;20037;-45
2023/10/18 00:46:32;;;;;;;5.60;2.33;;;28.40;99.90;;;;;;5055571;28;20033;-45
2023/10/18 00:48:59;;;;;;;5.03;2.35;;;28.40;99.90;;;;;;5055732;28;20029;-45
2023/10/18 00:51:25;;;;;;;3.83;2.55;;;28.40;99.90;;;;;;5055606;28;20033;-44
2023/10/18 00:53:51;;;;;;;7.07;2.90;;;28.40;99.90;;;;;;5055880;28;20079;-45
2023/10/18 00:56:17;;;;;;;5.00;2.65;;;28.40;99.90;;;;;;5055741;28;20029;-45
2023/10/18 00:58:47;;;;;;;7.30;3.08;;;28.30;99.90;;;;;;5055617;28;20032;-44
2023/10/18 01:01:13;;;;;;;6.70;2.50;;;28.30;99.90;;;;;;5067775;22;20171;-50
2023/10/18 01:03:45;;;;;;;6.00;2.72;;;28.30;99.90;;;;;;5055911;28;20401;-49
2023/10/18 01:06:26;;;;;;;7.30;2.53;;;28.30;99.90;;;;;;5055510;28;20094;-49
2023/10/18 01:08:53;;;;;;;6.38;3.03;;;28.30;99.90;;;;;;5055934;28;20029;-50
2023/10/18 01:11:23;;;;;;;5.55;2.25;;;28.30;99.90;;;;;;5055767;28;20018;-50
2023/10/18 01:13:49;;;;;;;5.05;2.30;;;28.30;99.90;;;;;;5055674;28;20021;-49
2023/10/18 01:16:22;;;;;;;5.15;2.35;;;28.30;99.90;;;;;;5055350;28;20418;-50
2023/10/18 01:18:50;;;;;;;6.15;2.75;;;28.30;99.90;;;;;;5055346;28;20029;-50
2023/10/18 01:21:20;;;;;;;5.55;2.25;;;28.30;99.90;;;;;;5055260;28;20052;-50
2023/10/18 01:23:54;;;;;;;4.72;2.22;;;28.30;99.90;;;;;;5055324;28;20343;-50
2023/10/18 01:26:28;;;;;;;6.90;2.20;;;28.30;99.90;;;;;;5055252;28;20024;-50
2023/10/18 01:28:55;;;;;;;4.57;2.05;;;28.20;99.90;;;;;;5055361;28;20024;-50
2023/10/18 01:31:22;;;;;;;8.05;2.90;;;28.20;99.90;;;;;;5055257;28;20032;-50
2023/10/18 01:33:50;;;;;;;5.28;2.47;;;28.20;99.90;;;;;;5055016;28;20021;-50
2023/10/18 01:36:16;;;;;;;;;;;28.20;99.90;;;;;;5055424;28;20112;-50
2023/10/18 01:38:46;;;;;;;4.40;2.28;;;28.20;99.90;;;;;;5055077;28;19909;-50
2023/10/18 01:41:28;;;;;;;6.40;2.40;;;28.20;99.90;;;;;;5053367;28;20029;-50
2023/10/18 01:43:56;;;;;;;4.53;2.28;;;28.20;99.90;;;;;;5055035;28;20073;-50
2023/10/18 01:46:23;;;;;;;7.60;2.90;;;28.10;99.90;;;;;;5054963;28;20021;-50
2023/10/18 01:48:52;;;;;;;6.20;2.22;;;28.20;99.90;;;;;;5054591;28;20059;-50
2023/10/18 01:51:19;;;;;;;4.22;2.00;;;28.10;99.90;;;;;;5054612;28;20021;-50
2023/10/18 01:53:45;;;;;;;5.38;2.67;;;28.10;99.90;;;;;;5054694;28;20469;-50
2023/10/18 01:56:11;;;;;;;7.53;1.90;;;28.10;99.90;;;;;;5054580;28;20037;-50
2023/10/18 01:58:37;;;;;;;4.75;2.20;;;28.10;99.90;;;;;;5054414;28;20523;-50
2023/10/18 02:01:08;;;;;;;8.95;2.60;;;28.10;99.90;;;;;;5066738;23;20056;-45
2023/10/18 02:03:34;;;;;;;5.53;2.13;;;28.10;99.90;;;;;;5054481;28;20021;-45
2023/10/18 02:06:06;;;;;;;7.47;2.30;;;28.10;99.90;;;;;;5054546;28;20572;-45
2023/10/18 02:08:34;;;;;;;6.63;1.98;;;28.10;99.90;;;;;;5054309;28;20560;-45
2023/10/18 02:11:03;;;;;;;4.97;2.22;;;28.10;99.90;;;;;;5054428;28;20017;-45
2023/10/18 02:13:29;;;;;;;4.63;1.70;;;28.10;99.90;;;;;;5054302;28;20477;-45
2023/10/18 02:15:57;;;;;;;5.45;1.95;;;28.10;99.90;;;;;;5036536;28;20113;-44
2023/10/18 02:18:23;;;;;;;5.40;2.13;;;28.10;99.90;;;;;;5054405;28;20087;-45
2023/10/18 02:20:52;;;;;;;8.00;2.65;;;28.00;99.90;;;;;;5054238;28;20401;-45
2023/10/18 02:23:21;;;;;;;6.68;2.50;;;28.00;99.90;;;;;;5054185;28;20496;-45
2023/10/18 02:25:48;;;;;;;6.57;2.35;;;28.00;99.90;;;;;;5054017;28;20040;-45
2023/10/18 02:28:22;;;;;;;5.85;2.05;;;28.00;99.90;;;;;;5054030;28;20473;-45
2023/10/18 02:30:56;;;;;;;7.38;1.75;;;28.00;99.90;;;;;;5054138;28;20029;-45
2023/10/18 02:33:38;;;;;;;6.60;1.95;;;28.00;99.90;;;;;;5054064;28;20027;-45
2023/10/18 02:36:11;;;;;;;6.80;2.30;;;28.00;99.90;;;;;;5053856;28;20017;-45
2023/10/18 02:38:38;;;;;;;7.15;2.38;;;28.00;99.90;;;;;;5053760;28;20027;-45
2023/10/18 02:41:15;;;;;;;6.35;2.60;;;28.00;99.90;;;;;;5053853;28;20489;-45
2023/10/18 02:43:50;;;;;;;5.95;2.22;;;27.90;99.90;;;;;;5053874;28;20482;-44
2023/10/18 02:46:20;;;;;;;5.27;1.90;;;27.90;99.90;;;;;;5053809;28;20421;-45
2023/10/18 02:48:48;;;;;;;6.57;2.17;;;27.90;99.90;;;;;;5053582;28;20099;-45
2023/10/18 02:51:16;;;;;;;9.77;2.50;;;27.90;99.90;;;;;;5053600;28;20064;-44
2023/10/18 02:53:41;;;;;;;4.60;2.15;;;27.90;99.90;;;;;;5053202;28;20053;-45
2023/10/18 02:56:17;;;;;;;8.25;2.53;;;27.90;99.90;;;;;;5053513;28;20021;-45
2023/10/18 02:58:46;;;;;;;8.32;2.20;;;27.90;99.90;;;;;;5053420;28;20056;-45
2023/10/18 03:01:14;;;;;;;8.65;2.20;;;27.90;99.90;;;;;;5065156;22;20056;-50
2023/10/18 03:03:40;;;;;;;6.47;2.47;;;27.80;99.90;;;;;;5053317;28;20116;-50
2023/10/18 03:06:16;;;;;;;6.70;2.65;;;27.80;99.90;;;;;;5053355;28;20116;-51
2023/10/18 03:08:49;;;;;;;7.82;1.95;;;27.80;99.90;;;;;;5053755;28;20036;-50
2023/10/18 03:11:15;;;;;;;6.63;2.10;;;27.80;99.90;;;;;;5053316;28;20071;-50
2023/10/18 03:13:42;;;;;;;6.30;2.30;;;27.80;99.90;;;;;;5053029;28;20071;-50
2023/10/18 03:18:44;;;;;;;6.35;2.38;;;27.70;99.90;;;;;;5052978;28;20025;-51
2023/10/18 03:21:22;;;;;;;7.70;1.83;;;27.70;99.90;;;;;;5053080;28;20028;-50
2023/10/18 03:23:51;;;;;;;8.95;2.67;;;27.70;99.90;;;;;;5052970;28;20029;-50
2023/10/18 03:26:33;;;;;;;5.63;1.75;;;27.70;99.90;;;;;;5052786;28;20020;-50
2023/10/18 03:29:05;;;;;;;5.95;2.05;;;27.70;99.90;;;;;;5053051;28;20029;-50
2023/10/18 03:31:35;;;;;;;8.18;2.72;;;27.70;99.90;;;;;;5053228;28;20021;-51
2023/10/18 03:34:02;;;;;;;6.25;2.33;;;27.60;99.90;;;;;;5052908;28;20025;-50
2023/10/18 03:36:32;;;;;;;6.75;2.20;;;27.60;99.90;;;;;;5052870;28;20029;-50
2023/10/18 03:39:15;;;;;;;4.32;1.85;;;27.60;99.90;;;;;;5052837;28;20028;-50
2023/10/18 03:41:41;;;;;;;8.93;2.22;;;27.60;99.90;;;;;;5052761;28;20024;-50
2023/10/18 03:44:13;;;;;;;7.03;1.80;;;27.60;99.90;;;;;;5052648;28;20058;-50
2023/10/18 03:46:48;;;;;;;11.98;2.85;;;27.60;99.90;;;;;;5052392;28;20025;-50
2023/10/18 03:49:39;;;;;;;6.45;1.75;;;27.50;99.90;;;;;;5052372;28;20380;-51
2023/10/18 03:54:45;;;;;;;6.68;2.17;;;27.50;99.90;;;;;;5052461;28;20109;-51
2023/10/18 03:57:17;;;;;;;10.20;2.17;;;27.50;99.90;;;;;;5052528;28;20082;-50
2023/10/18 03:59:47;;;;;;;8.02;2.03;;;27.50;99.90;;;;;;5052638;28;20095;-50
2023/10/18 04:02:26;;;;;;;8.23;1.73;;;27.50;99.90;;;;;;5052630;28;20052;-50
2023/10/18 04:04:58;;;;;;;8.95;2.50;;;27.50;99.90;;;;;;5051491;28;20177;-50
2023/10/18 04:07:26;;;;;;;3.95;1.85;;;27.40;99.90;;;;;;5052278;28;20025;-50
2023/10/18 04:09:53;;;;;;;11.55;2.17;;;27.40;99.90;;;;;;5052162;28;20481;-50
2023/10/18 04:12:22;;;;;;;7.65;1.67;;;27.40;99.90;;;;;;5052390;28;20108;-50
2023/10/18 04:14:58;;;;;;;6.53;2.60;;;27.40;99.90;;;;;;5052146;28;20539;-50
2023/10/18 04:17:37;;;;;;;8.05;1.90;;;27.40;99.90;;;;;;5052169;28;20033;-50
2023/10/18 04:20:12;;;;;;;5.82;1.92;;;27.40;99.90;;;;;;5052177;28;20025;-50
2023/10/18 04:22:40;;;;;;;6.57;2.00;;;27.30;99.90;;;;;;5034344;28;20036;-50
2023/10/18 04:25:15;;;;;;;5.28;1.77;;;27.30;99.90;;;;;;5052142;28;20033;-50
2023/10/18 04:27:42;;;;;;;5.30;1.80;;;27.30;99.90;;;;;;5051923;28;20032;-50
2023/10/18 04:30:11;;;;;;;4.03;1.45;;;27.30;99.90;;;;;;5052004;28;20025;-50
2023/10/18 04:32:37;;;;;;;5.07;1.58;;;27.20;99.90;;;;;;5052161;28;20028;-50
2023/10/18 04:35:09;;;;;;;8.30;2.17;;;27.20;99.90;;;;;;5052282;28;20021;-50
2023/10/18 04:37:35;;;;;;;6.78;1.83;;;27.20;99.90;;;;;;5051955;28;20029;-50
2023/10/18 04:40:04;;;;;;;5.47;1.60;;;27.20;99.90;;;;;;5052181;28;20049;-50
2023/10/18 04:42:31;;;;;;;5.15;1.55;;;27.20;99.90;;;;;;5052071;28;20527;-50
2023/10/18 04:44:58;;;;;;;7.80;2.17;;;27.20;99.90;;;;;;5034062;28;20116;-50
2023/10/18 04:47:32;;;;;;;4.43;1.77;;;27.20;99.90;;;;;;5051757;28;20083;-50
2023/10/18 04:50:04;;;;;;;8.70;2.25;;;27.20;99.90;;;;;;5051711;28;20489;-50
2023/10/18 04:52:40;;;;;;;6.05;1.70;;;27.20;99.90;;;;;;5052011;28;20025;-50
2023/10/18 04:55:11;;;;;;;7.07;1.50;;;27.20;99.90;;;;;;5051816;28;20021;-50
2023/10/18 04:57:38;;;;;;;7.40;1.73;;;27.20;99.90;;;;;;5051767;28;20104;-50
2023/10/18 05:02:53;;;;;;;5.45;1.60;;;27.20;99.90;;;;;;5051940;28;20075;-50
2023/10/18 05:05:20;;;;;;;5.97;2.05;;;27.10;99.90;;;;;;5051701;28;20532;-51
2023/10/18 05:07:49;;;;;;;5.97;1.40;;;27.20;99.90;;;;;;5051741;28;20040;-50
2023/10/18 05:10:16;;;;;;;6.60;1.90;;;27.10;99.90;;;;;;5051625;28;20470;-50
2023/10/18 05:13:19;;;;;;;4.20;1.63;;;27.10;99.90;;;;;;5051687;28;20021;-50
2023/10/18 05:15:34;;;;;;;5.10;1.80;;;27.10;99.90;;;;;;5050296;28;20033;-50
2023/10/18 05:18:05;;;;;;;5.75;1.45;;;27.20;99.90;;;;;;5055359;28;20078;-50
2023/10/18 05:23:19;;;;;;;8.02;1.55;;;27.10;99.90;;;;;;5055399;28;20484;-50
2023/10/18 05:25:45;;;;;;;3.70;1.10;;;27.10;99.90;;;;;;5055212;28;20027;-50
2023/10/18 05:28:24;;;;;;;4.53;1.27;;;27.10;99.90;;;;;;5055025;28;20058;-50
2023/10/18 05:41:28;;;;;;;4.80;1.70;;;27.10;99.90;;;;;;5054891;28;20017;-50
2023/10/18 05:44:01;;;;;;;4.38;1.15;;;27.10;99.90;;;;;;5054783;28;20108;-49
2023/10/18 05:46:33;;;;;;;3.63;0.98;;;27.10;99.90;;;;;;5054664;28;20049;-50
2023/10/18 05:49:01;;;;;;;6.35;1.85;;;27.10;99.90;;;;;;5054635;28;20024;-50
2023/10/18 05:51:34;;;;;;;4.25;1.42;;;27.10;99.90;;;;;;5054593;28;20381;-50
2023/10/18 05:54:00;;;;;;;4.60;1.10;;;27.10;99.90;;;;;;5054481;28;20393;-50
2023/10/18 05:56:32;;;;;;;5.05;1.40;;;27.10;99.90;;;;;;5054500;28;20017;-49
2023/10/18 06:01:54;;;;;;;3.58;1.20;;;27.00;99.90;;;;;;5054448;28;20052;-50
2023/10/18 06:04:38;;;;;;;6.40;1.40;;;27.10;99.90;;;;;;5054227;28;20033;-50
2023/10/18 06:07:16;;;;;;;3.70;1.23;;;27.10;99.90;;;;;;5036596;28;20351;-50
2023/10/18 06:12:24;;;;;;;5.15;1.30;;;27.10;99.90;;;;;;5054192;28;20021;-49
2023/10/18 06:14:53;;;;;;;3.00;1.33;;;27.00;99.90;;;;;;5054205;28;20032;-50
2023/10/18 06:17:46;;;;;;;6.47;1.25;;;27.10;99.90;;;;;;5054123;28;20041;-50
2023/10/18 06:22:53;;;;;;;5.57;1.33;;;27.00;99.90;;;;;;5053987;28;20029;-50
2023/10/18 06:25:25;;;;;;;3.28;1.10;;;27.00;99.90;;;;;;5053923;28;20023;-50
2023/10/18 06:27:53;;;;;;;4.05;1.42;;;27.00;99.90;;;;;;5053139;28;20087;-50
2023/10/18 06:30:19;;;;;;;2.25;0.90;;;27.00;99.90;;;;;;5053879;28;20013;-50
2023/10/18 06:32:46;;;;;;;3.13;1.00;;;27.00;99.90;;;;;;5053755;28;20389;-50
2023/10/18 06:35:19;;;;;;;3.70;0.95;;;27.00;99.90;;;;;;5053913;28;20035;-51
2023/10/18 06:37:45;;;;;;;4.20;1.58;;;27.00;99.90;;;;;;5053883;28;20021;-50
2023/10/18 06:41:00;;;;;;;4.07;1.33;;;27.00;99.90;;;;;;5053879;28;20029;-50
2023/10/18 06:43:03;;;;;;;3.33;1.48;;;27.00;99.90;;;;;;5047835;28;20489;-50
2023/10/18 06:45:33;;;;;;;3.45;1.10;;;27.00;99.90;;;;;;5053508;28;20078;-50
2023/10/18 06:48:02;;;;;;;3.40;1.23;;;27.00;99.90;;;;;;5036105;28;20033;-51
2023/10/18 06:50:28;;;;;;;3.75;1.00;;;27.00;99.90;;;;;;5053413;28;20013;-51
2023/10/18 06:52:54;;;;;;;4.43;1.38;;;27.00;99.90;;;;;;5035637;28;20032;-50
2023/10/18 06:55:35;;;;;;;3.17;1.05;;;27.00;99.90;;;;;;5053229;28;20025;-50
2023/10/18 06:58:13;;;;;;;3.83;1.02;;;27.00;99.90;;;;;;5053371;28;20067;-49
2023/10/18 07:00:51;;;;;;;5.38;1.10;;;27.00;99.90;;;;;;5053353;28;20021;-50
2023/10/18 07:03:33;;;;;;;4.03;0.95;;;27.00;99.90;;;;;;5053176;28;20099;-49
2023/10/18 07:06:18;;;;;;;4.85;1.50;;;27.00;99.90;;;;;;5053187;28;20537;-50
2023/10/18 07:08:45;;;;;;;8.85;2.17;;;27.00;99.90;;;;;;5053213;28;20029;-51
2023/10/18 07:11:17;;;;;;;4.55;2.40;;;27.00;99.90;;;;;;5053337;28;20021;-49
2023/10/18 07:13:46;;;;;;;5.25;2.42;;;27.00;99.90;;;;;;5053142;28;20032;-51
2023/10/18 07:16:25;;;;;;;5.72;2.30;;;27.00;99.90;;;;;;5053120;28;20029;-49
2023/10/18 07:19:04;;;;;;;5.78;3.05;;;27.00;99.90;;;;;;5052903;28;20025;-49
2023/10/18 07:21:32;;;;;;;7.35;3.40;;;27.00;99.90;;;;;;5053017;28;20481;-49
2023/10/18 07:24:09;;;;;;;8.52;3.17;;;27.00;99.90;;;;;;5052932;28;20017;-49
2023/10/18 07:26:38;;;;;;;7.37;3.50;;;27.00;99.90;;;;;;5052707;28;20103;-49
2023/10/18 07:29:06;;;;;;;6.75;3.17;;;27.00;99.90;;;;;;5052768;28;20032;-49
2023/10/18 07:31:39;;;;;;;6.95;3.78;;;27.00;99.90;;;;;;5052741;28;20488;-49
2023/10/18 07:34:08;;;;;;;7.38;3.95;;;27.00;99.90;;;;;;5052692;28;20028;-50
2023/10/18 07:36:38;;;;;;;5.90;3.50;;;27.10;99.90;;;;;;5052816;28;20036;-49
2023/10/18 07:39:06;;;;;;;8.10;3.92;;;27.10;99.90;;;;;;5052509;28;20489;-49
2023/10/18 07:41:35;;;;;;;6.60;3.38;;;27.10;99.90;;;;;;5052656;28;20023;-49
2023/10/18 07:44:05;;;;;;;5.20;3.45;;;27.10;99.90;;;;;;5052551;28;20029;-50
2023/10/18 07:46:39;;;;;;;7.63;3.78;;;27.10;99.90;;;;;;5052479;28;20473;-49
2023/10/18 07:49:16;;;;;;;7.03;3.30;;;27.20;99.90;;;;;;5052442;28;20159;-49
2023/10/18 07:51:48;;;;;;;5.78;3.17;;;27.20;99.90;;;;;;5052683;28;20092;-49
2023/10/18 07:54:16;;;;;;;5.00;2.33;;;27.20;99.90;;;;;;5052468;28;20036;-49
2023/10/18 07:57:04;;;;;;;6.50;2.78;;;27.20;99.90;;;;;;5052439;28;20062;-49
2023/10/18 07:59:30;;;;;;;6.07;2.92;;;27.30;99.90;;;;;;5051811;28;20021;-49
2023/10/18 08:02:12;;;;;;;4.88;2.92;;;27.40;99.90;;;;;;5052220;28;20053;-49
2023/10/18 08:04:42;;;;;;;6.07;2.90;;;27.30;99.90;;;;;;5052245;28;20040;-50
2023/10/18 08:07:15;;;;;;;5.35;2.72;;;27.40;99.90;;;;;;5052175;28;20116;-49
2023/10/18 08:09:43;;;;;;;5.18;2.75;;;27.40;99.90;;;;;;5052425;28;20048;-49
2023/10/18 08:14:48;;;;;;;3.88;2.42;;;27.50;99.90;;;;;;5051996;28;20385;-49
2023/10/18 08:22:49;;;;;;;3.95;2.50;;;27.50;99.90;;;;;;5041548;28;20102;-50
2023/10/18 08:25:21;;;;;;;4.32;2.40;;;27.50;99.90;;;;;;5052229;28;20031;-50
2023/10/18 08:27:54;;;;;;;5.50;2.80;;;27.60;99.90;;;;;;5051792;28;20076;-50
2023/10/18 08:31:06;;;;;;;5.25;2.95;;;27.60;99.90;;;;;;5034187;28;20025;-50
2023/10/18 08:33:07;;;;;;;8.00;2.60;;;27.60;99.90;;;;;;5041202;28;20033;-50
2023/10/18 08:35:33;;;;;;;4.75;2.17;;;27.60;99.90;;;;;;5051959;28;20099;-50
2023/10/18 08:38:01;;;;;;;5.90;2.58;;;27.60;99.90;;;;;;5052004;28;20079;-50
2023/10/18 08:40:30;;;;;;;5.35;2.72;;;27.70;99.90;;;;;;5051792;28;20060;-50
2023/10/18 08:43:08;;;;;;;3.38;2.05;;;27.70;99.90;;;;;;5051884;28;20017;-50
2023/10/18 08:45:36;;;;;;;7.32;2.63;;;27.70;99.90;;;;;;5051757;28;20055;-50
2023/10/18 08:48:10;;;;;;;3.70;1.85;;;27.70;99.90;;;;;;5051820;28;20393;-50
2023/10/18 08:50:39;;;;;;;4.75;2.30;;;27.70;99.90;;;;;;5053316;28;20028;-50
2023/10/18 08:53:05;;;;;;;5.90;2.35;;;27.80;99.90;;;;;;5055719;28;20025;-50
2023/10/18 08:55:44;;;;;;;6.75;2.65;;;27.70;99.90;;;;;;5055599;28;20104;-50
2023/10/18 08:58:22;;;;;;;5.22;2.20;;;27.80;99.90;;;;;;5039791;28;20025;-50
2023/10/18 09:03:23;;;;;;;5.80;2.33;;;27.90;99.90;;;;;;5055417;28;20104;-50
2023/10/18 09:05:52;;;;;;;3.28;1.80;;;27.80;99.90;;;;;;5037511;28;20025;-50
2023/10/18 09:08:19;;;;;;;3.85;1.77;;;27.90;99.90;;;;;;5055543;28;20045;-50
2023/10/18 09:10:55;;;;;;;3.92;1.80;;;27.90;99.90;;;;;;5055701;28;20075;-50
2023/10/18 09:18:26;;;;;;;3.45;2.00;;;28.00;99.90;;;;;;5055265;28;20083;-50
2023/10/18 09:20:55;;;;;;;5.18;1.90;;;28.00;99.90;;;;;;5055434;28;20021;-50
2023/10/18 09:23:28;;;;;;;4.63;2.30;;;28.00;99.90;;;;;;5055267;28;20056;-49
2023/10/18 09:26:27;;;;;;;2.60;1.58;;;28.00;99.90;;;;;;5055221;28;20045;-50
2023/10/18 09:28:46;;;;;;;7.15;2.45;;;28.10;99.90;;;;;;5051047;28;20053;-49
2023/10/18 09:31:21;;;;;;;6.47;2.33;;;28.10;99.90;;;;;;5055042;28;20027;-50
2023/10/18 09:33:56;;;;;;;4.18;2.40;;;28.20;99.90;;;;;;5055336;28;20031;-50
2023/10/18 09:36:25;;;;;;;4.00;1.73;;;28.20;99.90;;;;;;5054952;28;20423;-50
2023/10/18 09:38:53;;;;;;;4.07;2.22;;;28.20;99.90;;;;;;5054845;28;20032;-51
2023/10/18 09:41:21;;;;;;;2.90;1.70;;;28.20;99.90;;;;;;5055050;28;20484;-50
2023/10/18 09:43:47;;;;;;;3.92;1.83;;;28.20;99.90;;;;;;5055193;28;20182;-50
2023/10/18 09:46:14;;;;;;;4.13;1.80;;;28.30;99.90;;;;;;5054694;28;20044;-50
2023/10/18 09:48:41;;;;;;;;;;;28.30;99.90;;;;;;5055102;28;20619;-50
2023/10/18 09:51:08;;;;;;;4.50;2.22;;;28.30;99.90;;;;;;5054635;28;20303;-50
2023/10/18 09:53:49;;;;;;;5.07;2.13;;;28.40;99.90;;;;;;5054637;28;20029;-50
2023/10/18 09:56:19;;;;;;;4.35;1.60;;;28.40;99.90;;;;;;5054545;28;20103;-50
2023/10/18 09:58:49;;;;;;;4.57;2.75;;;28.40;99.90;;;;;;5054413;28;20433;-50
2023/10/18 10:01:53;;;;;;;4.50;1.80;;;28.50;99.90;;;;;;5053658;28;20033;-50
2023/10/18 10:04:22;;;;;;;3.97;1.67;;;28.50;99.90;;;;;;5054384;28;20041;-50
2023/10/18 10:07:27;;;;;;;2.90;1.90;;;28.50;99.90;;;;;;5054635;28;20488;-50
2023/10/18 10:09:38;;;;;;;3.95;1.80;;;28.50;99.90;;;;;;5052726;28;20037;-50
2023/10/18 10:12:11;;;;;;;3.28;2.13;;;28.60;99.90;;;;;;5054326;28;20150;-50
2023/10/18 10:14:37;;;;;;;4.15;2.30;;;28.60;99.90;;;;;;5054120;28;20031;-50
2023/10/18 10:17:17;;;;;;;3.55;2.17;;;28.60;99.90;;;;;;5036302;28;20359;-50
2023/10/18 10:19:54;;;;;;;5.07;2.53;;;28.60;99.90;;;;;;5054135;28;20114;-50
2023/10/18 10:22:24;;;;;;;3.40;2.22;;;28.60;99.90;;;;;;5054386;28;20035;-50
2023/10/18 10:25:05;;;;;;;5.80;2.50;;;28.60;99.90;;;;;;5053978;28;20435;-50
2023/10/18 10:30:19;;;;;;;5.95;2.35;;;28.60;99.90;;;;;;5053951;28;20036;-50
2023/10/18 10:32:46;;;;;;;5.00;2.30;;;28.60;99.90;;;;;;5036132;28;20442;-50
2023/10/18 10:35:16;;;;;;;4.35;2.40;;;28.60;99.90;;;;;;5053763;28;20025;-49
2023/10/18 10:37:55;;;;;;;4.43;2.22;;;28.60;99.90;;;;;;5053761;28;20032;-50
2023/10/18 10:43:14;;;;;;;3.95;2.20;;;28.60;99.90;;;;;;5053859;28;20485;-50
2023/10/18 10:51:16;;;;;;;4.57;2.42;;;28.50;99.90;;;;;;5053770;28;20079;-50
2023/10/18 10:54:00;;;;;;;4.65;2.17;;;28.50;99.90;;;;;;5053429;28;20021;-50
2023/10/18 10:56:32;;;;;;;5.32;2.28;;;28.50;99.90;;;;;;5053400;28;20028;-50
2023/10/18 10:59:21;;;;;;;2.90;2.22;;;28.50;99.90;;;;;;5053550;28;20424;-50
2023/10/18 11:01:44;;;;;;;5.10;2.00;;;28.50;99.90;;;;;;5052597;28;20048;-50
2023/10/18 11:04:24;;;;;;;4.25;2.03;;;28.50;99.90;;;;;;5053167;28;20029;-50
2023/10/18 11:06:56;;;;;;;5.35;2.50;;;28.50;99.90;;;;;;5053250;28;20025;-50
2023/10/18 11:09:32;;;;;;;4.07;2.20;;;28.60;99.90;;;;;;5053392;28;20033;-50
2023/10/18 11:12:08;;;;;;;3.88;1.88;;;28.50;99.90;;;;;;5053200;28;20476;-50
2023/10/18 11:14:37;;;;;;;4.03;1.73;;;28.60;99.90;;;;;;5052838;28;20094;-50
2023/10/18 11:19:45;;;;;;;2.78;1.55;;;28.60;99.90;;;;;;5052919;28;20021;-50
2023/10/18 11:22:13;;;;;;;5.43;2.28;;;28.60;99.90;;;;;;5052862;28;20071;-50
2023/10/18 11:24:39;;;;;;;5.80;2.20;;;28.60;99.90;;;;;;5052809;28;20044;-50
2023/10/18 11:27:08;;;;;;;3.60;1.80;;;28.60;99.90;;;;;;5052774;28;20033;-50
2023/10/18 11:29:38;;;;;;;3.85;1.60;;;28.60;99.90;;;;;;5052825;28;20128;-50
2023/10/18 11:32:07;;;;;;;6.13;2.30;;;28.60;99.90;;;;;;5052685;28;20032;-50
2023/10/18 11:34:37;;;;;;;4.10;1.92;;;28.70;99.90;;;;;;5052718;28;20028;-50
2023/10/18 11:37:08;;;;;;;4.65;2.40;;;28.60;99.90;;;;;;5052639;28;20021;-50
2023/10/18 11:39:34;;;;;;;5.00;2.92;;;28.60;99.90;;;;;;5052581;28;20024;-50
2023/10/18 11:42:00;;;;;;;6.82;2.92;;;28.70;99.90;;;;;;5052453;28;20029;-50
2023/10/18 11:44:31;;;;;;;5.10;2.58;;;28.70;99.90;;;;;;5052650;28;20354;-50
2023/10/18 11:47:20;;;;;;;5.88;3.38;;;28.70;99.90;;;;;;5052453;28;20064;-50
2023/10/18 11:49:54;;;;;;;5.90;3.33;;;28.70;99.90;;;;;;5052543;28;20387;-51
2023/10/18 11:52:25;;;;;;;6.53;3.65;;;28.80;99.90;;;;;;5052338;28;20013;-50
2023/10/18 11:54:52;;;;;;;5.40;3.25;;;28.80;99.90;;;;;;5052212;28;20021;-50
2023/10/18 11:57:24;;;;;;;6.43;3.17;;;28.80;99.90;;;;;;5052333;28;20104;-50
2023/10/18 11:59:57;;;;;;;5.97;3.50;;;28.80;99.90;;;;;;5052322;28;20040;-50
2023/10/18 12:02:28;;;;;;;7.78;3.08;;;28.90;99.90;;;;;;5034459;28;20135;-50
2023/10/18 12:04:57;;;;;;;6.88;3.20;;;28.90;99.90;;;;;;5052312;28;20103;-50
2023/10/18 12:07:23;;;;;;;7.95;3.08;;;28.90;99.90;;;;;;5052320;28;20492;-50
2023/10/18 12:09:53;;;;;;;6.75;3.47;;;29.00;99.90;;;;;;5052070;28;20055;-50
2023/10/18 12:12:19;;;;;;;4.55;3.00;;;29.00;99.90;;;;;;5052097;28;20051;-50
2023/10/18 12:14:46;;;;;;;6.10;3.55;;;29.00;99.90;;;;;;5051972;28;20400;-50
2023/10/18 12:17:13;;;;;;;6.72;3.03;;;29.10;99.90;;;;;;5052191;28;20025;-50
2023/10/18 12:19:39;;;;;;;7.28;2.90;;;29.10;99.90;;;;;;5052063;28;20028;-50
2023/10/18 12:22:07;;;;;;;5.20;2.80;;;29.10;99.90;;;;;;5051995;28;20040;-51
2023/10/18 12:24:33;;;;;;;7.47;3.47;;;29.20;99.90;;;;;;5051381;28;20039;-50
2023/10/18 12:27:18;;;;;;;6.53;2.90;;;29.20;99.90;;;;;;5051947;28;20037;-50
2023/10/18 12:29:45;;;;;;;5.78;2.40;;;29.20;99.90;;;;;;5034086;28;20044;-49
2023/10/18 12:32:26;;;;;;;5.28;2.70;;;29.20;99.90;;;;;;5051971;28;20021;-50
2023/10/18 12:34:56;;;;;;;5.22;2.92;;;29.20;99.90;;;;;;5051726;28;20029;-50
2023/10/18 12:37:26;;;;;;;5.32;2.60;;;29.30;99.90;;;;;;5051911;28;20144;-50
2023/10/18 12:39:52;;;;;;;4.93;2.45;;;29.30;99.90;;;;;;5033949;28;20032;-50
2023/10/18 12:42:21;;;;;;;5.63;2.58;;;29.30;99.90;;;;;;5051697;28;20017;-50
2023/10/18 12:44:47;;;;;;;5.43;2.72;;;29.30;99.90;;;;;;5033738;28;20491;-51
2023/10/18 12:47:22;;;;;;;7.65;3.42;;;29.40;99.90;;;;;;5051694;28;20469;-50
2023/10/18 12:49:52;;;;;;;4.03;2.42;;;29.40;99.90;;;;;;5051785;28;20051;-50
2023/10/18 12:57:53;;;;;;;5.55;2.40;;;29.40;99.90;;;;;;5052080;28;20032;-50
2023/10/18 13:00:23;;;;;;;3.85;2.55;;;29.40;99.90;;;;;;5051701;28;20059;-49
2023/10/18 13:05:22;;;;;;;5.25;2.35;;;29.40;99.90;;;;;;5051633;28;20036;-51
2023/10/18 13:07:54;;;;;;;4.82;2.42;;;29.40;99.90;;;;;;5051557;28;20084;-51
2023/10/18 13:10:29;;;;;;;4.68;2.30;;;29.40;99.90;;;;;;5051493;28;20025;-51
2023/10/18 13:12:55;;;;;;;8.07;3.22;;;29.40;99.90;;;;;;5035058;28;20013;-51
2023/10/18 13:15:22;;;;;;;4.28;2.17;;;29.40;99.90;;;;;;5051600;28;20036;-51
2023/10/18 13:17:49;;;;;;;5.53;2.40;;;29.40;99.90;;;;;;5034127;28;20025;-51
2023/10/18 13:20:15;;;;;;;6.53;3.17;;;29.40;99.90;;;;;;5033630;28;20124;-51
2023/10/18 13:22:44;;;;;;;4.82;2.20;;;29.50;99.90;;;;;;5051482;28;20104;-51
2023/10/18 13:25:25;;;;;;;4.03;2.22;;;29.40;99.90;;;;;;5051848;28;20033;-51
2023/10/18 13:28:05;;;;;;;3.72;2.03;;;29.50;99.90;;;;;;5051308;28;20032;-51
2023/10/18 13:30:43;;;;;;;5.43;2.13;;;29.50;99.90;;;;;;5051579;28;20086;-51
2023/10/18 13:33:12;;;;;;;4.88;2.63;;;29.50;99.90;;;;;;5051470;28;20023;-51
2023/10/18 13:35:43;;;;;;;4.55;2.15;;;29.50;99.90;;;;;;5051514;28;20412;-51
2023/10/18 13:38:09;;;;;;;6.03;2.50;;;29.40;99.90;;;;;;5054806;28;20045;-51
2023/10/18 13:40:36;;;;;;;7.38;2.72;;;29.50;99.90;;;;;;5037063;28;20053;-51
2023/10/18 13:43:07;;;;;;;;;;;29.50;99.90;;;;;;5055341;28;20021;-51
2023/10/18 13:45:33;;;;;;;3.55;2.00;;;29.50;99.90;;;;;;5054732;28;19909;-51
2023/10/18 13:47:59;;;;;;;7.67;2.33;;;29.50;99.90;;;;;;5054870;28;20033;-51
2023/10/18 13:50:26;;;;;;;3.83;2.00;;;29.50;99.90;;;;;;5036429;28;20528;-51
2023/10/18 13:52:52;;;;;;;6.00;2.07;;;29.50;99.90;;;;;;5054354;28;20025;-51
2023/10/18 13:55:21;;;;;;;6.18;2.60;;;29.40;99.90;;;;;;5054307;28;20538;-51
2023/10/18 13:57:46;;;;;;;8.95;2.30;;;29.40;99.90;;;;;;5054395;28;20021;-51
2023/10/18 14:00:18;;;;;;;3.88;1.80;;;29.40;99.90;;;;;;5054474;28;20548;-51
2023/10/18 14:02:45;;;;;;;5.20;2.67;;;29.40;99.90;;;;;;5054473;28;20041;-51
2023/10/18 14:05:11;;;;;;;6.00;2.05;;;29.40;99.90;;;;;;5036531;28;20029;-51
2023/10/18 14:07:37;;;;;;;7.13;2.35;;;29.40;99.90;;;;;;5054161;28;20036;-51
2023/10/18 14:10:20;;;;;;;4.32;1.90;;;29.40;99.90;;;;;;5054194;28;20108;-51
2023/10/18 14:12:47;;;;;;;5.68;1.75;;;29.40;99.90;;;;;;5054407;28;20033;-51
2023/10/18 14:15:16;;;;;;;7.88;2.35;;;29.40;99.90;;;;;;5054170;28;20135;-50
2023/10/18 14:17:52;;;;;;;5.32;1.80;;;29.40;99.90;;;;;;5054245;28;20032;-51